Time;durP1;ratioP1;P1;durP2;ratioP2;P2;SDS_P1;SDS_P2;PMS_P1;PMS_P2;Temp;Humidity;BMP_temperature;BMP_pressure;BME280_temperature;BME280_humidity;BME280_pressure;Samples;Min_cycle;Max_cycle;Signal;HPM_P1;HPM_P2
2021/08/05 00:02:02;;;;;;;;;;;;;;;20.41;78.12;99890.95;1446103;90;20295;-87
2021/08/05 00:04:28;;;;;;;;;;;;;;;20.38;77.70;99886.03;1447322;90;20287;-87
2021/08/05 00:06:54;;;;;;;;;;;;;;;20.39;77.91;99885.79;1430965;90;20294;-87
2021/08/05 00:09:20;;;;;;;;;;;;;;;20.36;77.83;99890.80;1441786;90;20336;-87
2021/08/05 00:11:46;;;;;;;;;;;;;;;20.34;77.40;99887.51;1445158;90;20294;-87
2021/08/05 00:14:12;;;;;;;;;;;;;;;20.34;78.18;99881.64;1444041;90;20415;-87
2021/08/05 00:16:39;;;;;;;;;;;;;;;20.29;78.37;99876.92;1443422;90;20333;-87
2021/08/05 00:19:05;;;;;;;;;;;;;;;20.26;77.86;99876.56;1449829;90;20801;-87
2021/08/05 00:21:31;;;;;;;;;;;;;;;20.20;78.31;99878.80;1443354;90;20332;-87
2021/08/05 00:23:57;;;;;;;;;;;;;;;20.11;79.02;99879.63;1444345;90;20250;-87
2021/08/05 00:26:23;;;;;;;;;;;;;;;20.03;79.02;99875.88;1428588;90;20308;-87
2021/08/05 00:28:49;;;;;;;;;;;;;;;19.95;79.52;99874.30;1448542;90;20459;-87
2021/08/05 00:31:15;;;;;;;;;;;;;;;19.86;80.05;99874.82;1449381;90;20866;-87
2021/08/05 00:33:41;;;;;;;;;;;;;;;19.79;80.45;99879.73;1442842;90;20308;-87
2021/08/05 00:36:07;;;;;;;;;;;;;;;19.76;80.70;99880.15;1452304;90;20258;-87
2021/08/05 00:38:33;;;;;;;;;;;;;;;19.72;81.05;99876.28;1448281;90;20346;-87
2021/08/05 00:40:59;;;;;;;;;;;;;;;19.71;80.47;99877.83;1447389;90;20250;-86
2021/08/05 00:43:25;;;;;;;;;;;;;;;19.71;80.28;99882.70;1444006;90;20250;-86
2021/08/05 00:45:51;;;;;;;;;;;;;;;19.66;82.00;99878.51;1447162;90;20405;-87
2021/08/05 00:48:17;;;;;;;;;;;;;;;19.62;81.08;99875.91;1431489;90;20750;-87
2021/08/05 00:50:43;;;;;;;;;;;;;;;19.57;81.26;99872.56;1430563;91;20302;-87
2021/08/05 00:53:09;;;;;;;;;;;;;;;19.52;81.49;99880.97;1433839;91;20394;-87
2021/08/05 00:55:35;;;;;;;;;;;;;;;19.49;80.70;99872.84;1439107;91;20251;-87
2021/08/05 00:58:01;;;;;;;;;;;;;;;19.49;82.11;99879.55;1431220;91;20371;-86
2021/08/05 01:00:29;;;;;;;;;;;;;;;19.47;82.09;99874.09;1428321;91;20391;-87
2021/08/05 01:02:59;;;;;;;;;;;;;;;19.47;81.49;99857.99;1431013;91;20294;-87
2021/08/05 01:05:27;;;;;;;;;;;;;;;19.50;81.62;99852.19;1434892;91;20348;-87
2021/08/05 01:07:59;;;;;;;;;;;;;;;19.54;81.43;99853.41;1434259;91;20831;-87
2021/08/05 01:10:28;;;;;;;;;;;;;;;19.59;81.13;99853.54;1423180;91;20323;-86
2021/08/05 01:13:21;;;;;;;;;;;;;;;19.61;81.81;99856.84;1434958;91;20303;-87
2021/08/05 01:15:48;;;;;;;;;;;;;;;19.59;81.56;99857.56;1434479;91;20333;-87
2021/08/05 01:18:16;;;;;;;;;;;;;;;19.61;81.87;99856.84;1424399;91;20287;-87
2021/08/05 01:20:44;;;;;;;;;;;;;;;19.64;81.22;99857.73;1429055;91;20951;-87
2021/08/05 01:23:16;;;;;;;;;;;;;;;19.69;81.31;99861.14;1438932;91;20237;-87
2021/08/05 01:25:46;;;;;;;;;;;;;;;19.73;81.20;99860.45;1420243;90;20235;-87
2021/08/05 01:28:13;;;;;;;;;;;;;;;19.73;81.30;99856.43;1432094;91;20480;-87
2021/08/05 01:30:44;;;;;;;;;;;;;;;19.75;81.79;99855.70;1424039;91;20867;-87
2021/08/05 01:33:11;;;;;;;;;;;;;;;19.76;81.70;99851.14;1431047;91;20232;-86
2021/08/05 01:35:37;;;;;;;;;;;;;;;19.75;81.61;99846.30;1432760;91;20742;-87
2021/08/05 01:38:03;;;;;;;;;;;;;;;19.78;80.73;99846.38;1420541;91;20486;-87
2021/08/05 01:40:30;;;;;;;;;;;;;;;19.81;80.49;99838.70;1441451;91;20370;-87
2021/08/05 01:42:58;;;;;;;;;;;;;;;19.84;81.30;99832.87;1437453;91;20316;-87
2021/08/05 01:45:25;;;;;;;;;;;;;;;19.83;81.83;99828.56;1434688;91;20317;-86
2021/08/05 01:47:51;;;;;;;;;;;;;;;19.80;81.15;99829.02;1440821;90;20301;-87
2021/08/05 01:50:18;;;;;;;;;;;;;;;19.74;81.27;99827.22;1442027;90;20750;-87
2021/08/05 01:52:44;;;;;;;;;;;;;;;19.71;80.87;99820.95;1443149;90;20212;-87
2021/08/05 01:55:12;;;;;;;;;;;;;;;19.69;80.71;99819.00;1421448;90;20265;-87
2021/08/05 01:57:38;;;;;;;;;;;;;;;19.70;81.53;99816.61;1451262;90;20394;-87
2021/08/05 02:00:06;;;;;;;;;;;;;;;19.66;81.73;99822.66;1445520;90;20301;-88
2021/08/05 02:02:32;;;;;;;;;;;;;;;19.60;82.03;99821.13;1447203;90;20457;-87
2021/08/05 02:05:19;;;;;;;;;;;;;;;19.61;81.31;99817.91;1447576;90;20301;-88
2021/08/05 02:07:57;;;;;;;;;;;;;;;19.60;81.75;99814.94;1443201;90;20749;-87
2021/08/05 02:10:46;;;;;;;;;;;;;;;19.59;81.75;99829.38;1442655;90;20442;-87
2021/08/05 02:13:35;;;;;;;;;;;;;;;19.58;82.10;99827.75;1446718;90;20841;-87
2021/08/05 02:16:02;;;;;;;;;;;;;;;19.56;81.84;99832.52;1451510;90;20361;-87
2021/08/05 02:18:34;;;;;;;;;;;;;;;19.55;81.22;99832.22;1427796;90;20264;-87
2021/08/05 02:21:02;;;;;;;;;;;;;;;19.45;81.81;99830.55;1449873;90;20258;-87
2021/08/05 02:23:30;;;;;;;;;;;;;;;19.41;81.57;99830.70;1448400;90;20296;-87
2021/08/05 02:25:57;;;;;;;;;;;;;;;19.37;82.15;99820.41;1449718;90;20293;-87
2021/08/05 02:28:24;;;;;;;;;;;;;;;19.31;82.53;99811.09;1443028;90;20982;-87
2021/08/05 02:30:52;;;;;;;;;;;;;;;19.27;82.15;99807.18;1447645;90;20287;-87
2021/08/05 02:33:19;;;;;;;;;;;;;;;19.26;82.42;99807.70;1453445;90;20429;-87
2021/08/05 02:35:47;;;;;;;;;;;;;;;19.24;83.08;99803.07;1454520;90;20756;-86
2021/08/05 02:38:13;;;;;;;;;;;;;;;19.21;83.73;99800.83;1447126;90;20308;-87
2021/08/05 02:40:40;;;;;;;;;;;;;;;19.17;83.91;99798.30;1457288;90;20287;-87
2021/08/05 02:43:09;;;;;;;;;;;;;;;19.14;84.97;99794.71;1448457;90;20332;-87
2021/08/05 02:45:35;;;;;;;;;;;;;;;19.09;85.40;99799.91;1452430;90;20286;-87
2021/08/05 02:48:04;;;;;;;;;;;;;;;19.07;85.59;99806.00;1446185;90;20741;-87
2021/08/05 02:50:31;;;;;;;;;;;;;;;19.04;86.03;99811.80;1442428;90;20332;-86
2021/08/05 02:52:58;;;;;;;;;;;;;;;19.03;85.56;99816.88;1451761;90;20222;-87
2021/08/05 02:55:24;;;;;;;;;;;;;;;19.03;86.08;99807.48;1430497;90;20264;-87
2021/08/05 02:57:52;;;;;;;;;;;;;;;19.03;86.15;99796.76;1446668;90;20377;-87
2021/08/05 03:00:18;;;;;;;;;;;;;;;19.02;86.59;99785.71;1444809;90;20353;-86
2021/08/05 03:02:45;;;;;;;;;;;;;;;19.01;86.15;99792.12;1450719;90;20220;-86
2021/08/05 03:05:12;;;;;;;;;;;;;;;19.01;85.80;99792.94;1452742;90;20272;-86
2021/08/05 03:07:38;;;;;;;;;;;;;;;19.02;85.43;99793.27;1449791;90;20286;-87
2021/08/05 03:10:05;;;;;;;;;;;;;;;19.04;85.65;99791.16;1458548;90;20280;-87
2021/08/05 03:12:31;;;;;;;;;;;;;;;19.05;85.41;99782.63;1442402;90;20423;-87
2021/08/05 03:14:57;;;;;;;;;;;;;;;19.05;85.80;99782.09;1451875;90;20727;-87
2021/08/05 03:17:23;;;;;;;;;;;;;;;19.07;85.39;99781.34;1446798;90;20376;-87
2021/08/05 03:19:49;;;;;;;;;;;;;;;19.07;85.46;99782.67;1444511;90;20295;-87
2021/08/05 03:22:15;;;;;;;;;;;;;;;19.07;85.47;99784.54;1455588;90;20321;-87
2021/08/05 03:24:41;;;;;;;;;;;;;;;19.08;85.86;99785.67;1437834;90;20742;-87
2021/08/05 03:27:10;;;;;;;;;;;;;;;19.08;85.13;99785.67;1445388;90;20273;-86
2021/08/05 03:29:36;;;;;;;;;;;;;;;19.09;85.46;99784.62;1448339;90;20294;-87
2021/08/05 03:32:02;;;;;;;;;;;;;;;19.12;84.95;99778.83;1453642;90;20257;-87
2021/08/05 03:34:28;;;;;;;;;;;;;;;19.16;85.32;99772.50;1445929;90;20369;-87
2021/08/05 03:36:54;;;;;;;;;;;;;;;19.22;84.82;99775.67;1443940;90;20301;-87
2021/08/05 03:39:21;;;;;;;;;;;;;;;19.27;85.14;99774.46;1436317;90;20236;-87
2021/08/05 03:41:47;;;;;;;;;;;;;;;19.27;84.76;99781.17;1449376;90;20250;-86
2021/08/05 03:44:13;;;;;;;;;;;;;;;19.24;84.72;99778.92;1440171;90;20332;-87
2021/08/05 03:46:39;;;;;;;;;;;;;;;19.23;84.32;99771.93;1443836;90;20221;-86
2021/08/05 03:49:05;;;;;;;;;;;;;;;19.24;83.98;99771.41;1450215;90;20243;-87
2021/08/05 03:51:31;;;;;;;;;;;;;;;19.21;84.25;99774.00;1427338;90;20412;-87
2021/08/05 03:53:57;;;;;;;;;;;;;;;19.20;84.07;99763.52;1443230;90;20711;-87
2021/08/05 03:56:23;;;;;;;;;;;;;;;19.23;83.59;99763.07;1452444;90;20278;-87
2021/08/05 03:58:49;;;;;;;;;;;;;;;19.22;84.09;99754.20;1448299;90;20499;-87
2021/08/05 04:01:15;;;;;;;;;;;;;;;19.22;84.32;99748.00;1450904;90;20302;-87
2021/08/05 04:03:41;;;;;;;;;;;;;;;19.24;83.39;99746.73;1452563;90;20338;-87
2021/08/05 04:06:08;;;;;;;;;;;;;;;19.24;83.67;99745.39;1426894;90;20273;-87
2021/08/05 04:08:35;;;;;;;;;;;;;;;19.24;83.44;99732.51;1443180;90;20288;-87
2021/08/05 04:11:01;;;;;;;;;;;;;;;19.22;84.34;99736.77;1451150;90;20779;-87
2021/08/05 04:13:27;;;;;;;;;;;;;;;19.21;84.26;99739.13;1441528;90;20372;-87
2021/08/05 04:15:53;;;;;;;;;;;;;;;19.19;83.89;99738.55;1443671;90;20492;-87
2021/08/05 04:18:19;;;;;;;;;;;;;;;19.17;84.40;99733.92;1447905;90;20279;-87
2021/08/05 04:20:45;;;;;;;;;;;;;;;19.14;84.86;99741.07;1449319;90;20926;-87
2021/08/05 04:23:11;;;;;;;;;;;;;;;19.09;85.08;99735.53;1437232;90;20756;-87
2021/08/05 04:25:37;;;;;;;;;;;;;;;19.07;85.50;99728.22;1452697;90;20311;-87
2021/08/05 04:28:03;;;;;;;;;;;;;;;19.06;85.68;99729.28;1443549;90;20309;-87
2021/08/05 04:30:29;;;;;;;;;;;;;;;19.06;85.66;99720.70;1443711;90;20258;-86
2021/08/05 04:32:55;;;;;;;;;;;;;;;19.05;85.34;99715.05;1435552;90;20278;-87
2021/08/05 04:35:21;;;;;;;;;;;;;;;19.09;85.50;99708.72;1441647;90;20235;-86
2021/08/05 04:37:59;;;;;;;;;;;;;;;19.14;84.71;99696.81;1445732;90;20243;-87
2021/08/05 04:40:28;;;;;;;;;;;;;;;19.19;84.50;99698.32;1448546;90;20316;-87
2021/08/05 04:42:54;;;;;;;;;;;;;;;19.24;84.13;99693.09;1446083;90;20361;-87
2021/08/05 04:45:20;;;;;;;;;;;;;;;19.25;83.59;99688.05;1442721;90;20891;-87
2021/08/05 04:47:58;;;;;;;;;;;;;;;19.31;83.27;99685.80;1444151;90;20286;-86
2021/08/05 04:50:26;;;;;;;;;;;;;;;19.35;82.84;99678.94;1424929;90;20712;-88
2021/08/05 04:52:52;;;;;;;;;;;;;;;19.41;82.35;99674.55;1433231;91;20294;-86
2021/08/05 04:55:19;;;;;;;;;;;;;;;19.48;82.05;99669.09;1430411;91;20355;-86
2021/08/05 04:57:46;;;;;;;;;;;;;;;19.49;81.94;99666.73;1433337;91;20317;-86
2021/08/05 05:00:13;;;;;;;;;;;;;;;19.57;81.77;99659.19;1439335;91;20714;-87
2021/08/05 05:02:39;;;;;;;;;;;;;;;19.67;81.25;99653.84;1429968;91;20308;-87
2021/08/05 05:05:05;;;;;;;;;;;;;;;19.72;81.11;99649.43;1444771;91;20273;-86
2021/08/05 05:07:30;;;;;;;;;;;;;;;19.78;80.74;99631.59;1435019;91;20265;-87
2021/08/05 05:09:56;;;;;;;;;;;;;;;19.86;80.70;99619.20;1423676;91;20460;-86
2021/08/05 05:12:22;;;;;;;;;;;;;;;19.90;80.45;99607.47;1440815;91;20478;-87
2021/08/05 05:14:48;;;;;;;;;;;;;;;20.00;80.22;99595.67;1435455;91;20286;-87
2021/08/05 05:17:14;;;;;;;;;;;;;;;20.10;80.13;99595.91;1423804;91;20354;-87
2021/08/05 05:19:39;;;;;;;;;;;;;;;20.15;79.33;99593.36;1441765;91;20801;-86
2021/08/05 05:22:05;;;;;;;;;;;;;;;20.23;79.17;99579.59;1428273;91;20206;-87
2021/08/05 05:24:31;;;;;;;;;;;;;;;20.24;78.22;99570.48;1427467;91;20251;-87
2021/08/05 05:26:57;;;;;;;;;;;;;;;20.36;78.40;99573.17;1425657;91;20572;-87
2021/08/05 05:29:23;;;;;;;;;;;;;;;20.47;78.04;99566.18;1426982;91;20355;-87
2021/08/05 05:31:49;;;;;;;;;;;;;;;20.63;78.05;99564.17;1420257;91;20294;-87
2021/08/05 05:34:15;;;;;;;;;;;;;;;20.76;77.09;99560.95;1429741;91;20243;-86
2021/08/05 05:36:41;;;;;;;;;;;;;;;20.94;76.88;99554.91;1442640;91;20272;-87
2021/08/05 05:39:07;;;;;;;;;;;;;;;21.10;76.29;99545.27;1430976;91;20302;-87
2021/08/05 05:41:32;;;;;;;;;;;;;;;21.22;75.07;99542.55;1440099;91;20324;-87
2021/08/05 05:43:58;;;;;;;;;;;;;;;21.35;74.80;99542.28;1425690;91;20875;-87
2021/08/05 05:46:26;;;;;;;;;;;;;;;21.44;73.71;99542.74;1430573;91;20266;-87
2021/08/05 05:48:52;;;;;;;;;;;;;;;21.55;73.65;99546.42;1428994;90;21221;-86
2021/08/05 05:51:18;;;;;;;;;;;;;;;21.69;73.86;99547.76;1439893;91;20251;-87
2021/08/05 05:53:44;;;;;;;;;;;;;;;21.80;72.75;99543.37;1431788;91;20889;-87
2021/08/05 05:56:12;;;;;;;;;;;;;;;21.85;72.25;99538.09;1422265;91;20395;-87
2021/08/05 05:58:38;;;;;;;;;;;;;;;21.93;72.06;99543.08;1439122;91;20316;-87
2021/08/05 06:01:04;;;;;;;;;;;;;;;22.06;71.91;99552.71;1441994;91;20756;-86
2021/08/05 06:03:30;;;;;;;;;;;;;;;22.19;71.12;99548.92;1432334;91;20415;-87
2021/08/05 06:05:56;;;;;;;;;;;;;;;22.26;70.15;99536.09;1423708;91;20264;-86
2021/08/05 06:08:22;;;;;;;;;;;;;;;22.36;69.66;99524.12;1429547;91;20391;-87
2021/08/05 06:10:48;;;;;;;;;;;;;;;22.35;68.50;99507.65;1430625;91;20845;-87
2021/08/05 06:13:14;;;;;;;;;;;;;;;22.51;68.58;99514.91;1438903;91;20894;-87
2021/08/05 06:15:40;;;;;;;;;;;;;;;22.64;68.97;99511.56;1439255;91;20414;-86
2021/08/05 06:18:06;;;;;;;;;;;;;;;22.72;68.87;99513.30;1432808;91;20242;-87
2021/08/05 06:20:32;;;;;;;;;;;;;;;22.81;68.04;99509.62;1427899;91;20281;-87
2021/08/05 06:22:58;;;;;;;;;;;;;;;22.95;67.63;99506.06;1432380;91;20405;-87
2021/08/05 06:25:24;;;;;;;;;;;;;;;23.08;66.37;99503.00;1434719;91;20283;-86
2021/08/05 06:27:50;;;;;;;;;;;;;;;23.13;67.10;99507.62;1425599;91;20369;-87
2021/08/05 06:30:17;;;;;;;;;;;;;;;23.04;65.35;99499.69;1439937;91;20815;-87
2021/08/05 06:32:43;;;;;;;;;;;;;;;22.92;66.07;99492.51;1431532;91;20302;-87
2021/08/05 06:35:09;;;;;;;;;;;;;;;22.98;66.18;99494.77;1428808;91;20258;-87
2021/08/05 06:37:36;;;;;;;;;;;;;;;23.09;65.59;99488.42;1429958;91;20676;-87
2021/08/05 06:40:05;;;;;;;;;;;;;;;23.25;64.97;99483.18;1435465;91;20348;-87
2021/08/05 06:42:33;;;;;;;;;;;;;;;23.45;65.55;99482.58;1435911;91;20362;-87
2021/08/05 06:44:59;;;;;;;;;;;;;;;23.59;64.27;99479.74;1440174;91;20302;-88
2021/08/05 06:47:26;;;;;;;;;;;;;;;23.63;62.54;99481.69;1437061;91;20235;-87
2021/08/05 06:49:52;;;;;;;;;;;;;;;23.79;63.61;99486.70;1436456;90;20326;-87
2021/08/05 06:52:17;;;;;;;;;;;;;;;23.97;62.33;99490.12;1447833;90;20443;-87
2021/08/05 06:54:43;;;;;;;;;;;;;;;24.09;61.12;99488.04;1444741;90;20272;-87
2021/08/05 06:57:09;;;;;;;;;;;;;;;24.21;61.73;99496.77;1455495;90;20214;-87
2021/08/05 06:59:35;;;;;;;;;;;;;;;24.40;62.53;99485.52;1452441;90;20257;-87
2021/08/05 07:02:01;;;;;;;;;;;;;;;24.60;62.53;99495.67;1462192;90;20258;-87
2021/08/05 07:04:27;;;;;;;;;;;;;;;24.61;60.23;99489.20;1457287;90;20413;-87
2021/08/05 07:06:53;;;;;;;;;;;;;;;24.59;59.46;99486.75;1443492;90;20815;-87
2021/08/05 07:09:19;;;;;;;;;;;;;;;24.65;59.71;99481.63;1455243;90;20251;-87
2021/08/05 07:11:45;;;;;;;;;;;;;;;24.86;59.86;99485.78;1451132;90;20390;-87
2021/08/05 07:14:11;;;;;;;;;;;;;;;25.09;59.74;99478.58;1441743;90;20250;-87
2021/08/05 07:16:39;;;;;;;;;;;;;;;25.32;58.27;99473.25;1444235;90;20302;-88
2021/08/05 07:19:04;;;;;;;;;;;;;;;25.49;56.79;99475.72;1443626;90;20295;-88
2021/08/05 07:21:30;;;;;;;;;;;;;;;25.77;57.95;99481.14;1450747;90;20361;-88
2021/08/05 07:23:56;;;;;;;;;;;;;;;25.99;56.82;99476.84;1448767;89;20258;-87
2021/08/05 07:26:22;;;;;;;;;;;;;;;26.14;54.18;99475.20;1439787;90;20346;-87
2021/08/05 07:28:48;;;;;;;;;;;;;;;26.21;53.21;99474.36;1448131;90;20250;-87
2021/08/05 07:31:14;;;;;;;;;;;;;;;26.34;54.72;99468.37;1442837;90;20324;-88
2021/08/05 07:33:40;;;;;;;;;;;;;;;26.46;54.64;99474.30;1449648;90;20502;-88
2021/08/05 07:36:07;;;;;;;;;;;;;;;26.52;51.81;99450.72;1429986;90;20326;-87
2021/08/05 07:38:33;;;;;;;;;;;;;;;26.74;53.98;99438.16;1445577;90;20264;-88
2021/08/05 07:40:59;;;;;;;;;;;;;;;26.85;52.19;99428.87;1438957;90;20556;-88
2021/08/05 07:43:25;;;;;;;;;;;;;;;26.97;51.84;99428.55;1447825;90;20258;-87
2021/08/05 07:45:51;;;;;;;;;;;;;;;27.11;50.81;99421.40;1442801;90;20942;-87
2021/08/05 07:48:16;;;;;;;;;;;;;;;27.27;50.52;99424.84;1422606;90;20266;-88
2021/08/05 07:50:42;;;;;;;;;;;;;;;27.11;48.39;99417.88;1430675;90;20448;-87
2021/08/05 07:53:08;;;;;;;;;;;;;;;27.05;50.20;99410.86;1446190;90;20342;-90
2021/08/05 07:55:34;;;;;;;;;;;;;;;26.94;50.78;99397.33;1445078;90;20280;-88
2021/08/05 07:58:00;;;;;;;;;;;;;;;26.81;50.75;99377.58;1449932;90;20332;-87
2021/08/05 08:00:26;;;;;;;;;;;;;;;26.66;50.81;99362.75;1447215;90;20756;-88
2021/08/05 08:02:52;;;;;;;;;;;;;;;26.58;50.15;99360.61;1450556;90;20328;-87
2021/08/05 08:05:18;;;;;;;;;;;;;;;26.56;50.81;99359.55;1442793;90;20266;-87
2021/08/05 08:07:44;;;;;;;;;;;;;;;26.60;51.07;99351.11;1451015;90;20303;-87
2021/08/05 08:10:12;;;;;;;;;;;;;;;26.66;51.97;99353.25;1443632;90;20285;-87
2021/08/05 08:12:38;;;;;;;;;;;;;;;26.68;50.90;99344.30;1449283;90;20832;-87
2021/08/05 08:15:05;;;;;;;;;;;;;;;26.89;51.16;99348.49;1442816;90;20309;-88
2021/08/05 08:17:31;;;;;;;;;;;;;;;27.13;50.23;99347.78;1450446;90;20294;-88
2021/08/05 08:19:57;;;;;;;;;;;;;;;27.31;49.24;99345.78;1448096;90;20236;-88
2021/08/05 08:22:24;;;;;;;;;;;;;;;27.51;48.43;99346.16;1438122;90;20829;-87
2021/08/05 08:24:51;;;;;;;;;;;;;;;27.64;47.38;99338.67;1445135;90;20368;-88
2021/08/05 08:27:17;;;;;;;;;;;;;;;27.87;47.41;99333.59;1448739;90;20323;-88
2021/08/05 08:29:43;;;;;;;;;;;;;;;28.18;49.11;99334.61;1449813;90;20271;-81
2021/08/05 08:32:09;;;;;;;;;;;;;;;28.28;46.93;99346.18;1447381;90;20422;-81
2021/08/05 08:34:34;;;;;;;;;;;;;;;28.30;47.54;99352.67;1453479;90;20985;-81
2021/08/05 08:37:00;;;;;;;;;;;;;;;28.19;48.12;99350.62;1444196;90;20229;-81
2021/08/05 08:39:26;;;;;;;;;;;;;;;27.86;45.90;99347.73;1445322;90;20286;-80
2021/08/05 08:41:52;;;;;;;;;;;;;;;27.68;46.90;99361.48;1448076;90;20886;-81
2021/08/05 08:44:18;;;;;;;;;;;;;;;27.57;47.53;99359.15;1446763;90;20243;-80
2021/08/05 08:46:46;;;;;;;;;;;;;;;27.29;47.03;99350.68;1443334;90;20294;-81
2021/08/05 08:49:12;;;;;;;;;;;;;;;27.14;47.76;99337.20;1449017;90;20294;-80
2021/08/05 08:51:39;;;;;;;;;;;;;;;27.07;48.85;99338.05;1413554;91;20790;-80
2021/08/05 08:54:07;;;;;;;;;;;;;;;26.89;49.08;99334.92;1428776;92;20258;-81
2021/08/05 08:56:36;;;;;;;;;;;;;;;26.79;49.86;99324.14;1398974;92;20365;-80
2021/08/05 08:59:02;;;;;;;;;;;;;;;26.63;49.88;99307.69;1414647;91;20294;-81
2021/08/05 09:01:29;;;;;;;;;;;;;;;26.41;49.88;99291.76;1427658;92;20371;-81
2021/08/05 09:03:55;;;;;;;;;;;;;;;26.32;50.50;99286.11;1425742;91;20771;-80
2021/08/05 09:06:21;;;;;;;;;;;;;;;26.32;50.83;99290.17;1417837;92;20262;-80
2021/08/05 09:08:49;;;;;;;;;;;;;;;26.34;50.81;99295.59;1434032;92;20237;-81
2021/08/05 09:11:15;;;;;;;;;;;;;;;26.25;50.81;99293.75;1419201;92;20237;-80
2021/08/05 09:13:41;;;;;;;;;;;;;;;26.26;51.28;99291.30;1434156;91;20280;-81
2021/08/05 09:16:31;;;;;;;;;;;;;;;26.23;51.47;99271.52;1416630;92;20311;-81
2021/08/05 09:19:15;;;;;;;;;;;;;;;25.97;52.46;99266.20;1428900;91;20336;-80
2021/08/05 09:22:01;;;;;;;;;;;;;;;26.09;52.64;99265.88;1417909;92;20341;-80
2021/08/05 09:24:28;;;;;;;;;;;;;;;26.00;52.19;99250.73;1424218;91;20360;-80
2021/08/05 09:26:58;;;;;;;;;;;;;;;26.09;52.83;99259.10;1408393;92;20781;-81
2021/08/05 09:29:24;;;;;;;;;;;;;;;26.14;53.20;99242.02;1428810;91;20874;-81
2021/08/05 09:31:54;;;;;;;;;;;;;;;26.13;53.84;99235.78;1419777;92;20259;-81
2021/08/05 09:34:22;;;;;;;;;;;;;;;26.01;53.14;99223.08;1428564;91;20376;-81
2021/08/05 09:36:51;;;;;;;;;;;;;;;25.92;54.34;99221.50;1418778;92;20825;-81
2021/08/05 09:39:24;;;;;;;;;;;;;;;25.81;52.54;99217.20;1425867;91;20436;-80
2021/08/05 09:42:05;;;;;;;;;;;;;;;25.56;53.46;99218.09;1404584;92;20766;-81
2021/08/05 09:44:43;;;;;;;;;;;;;;;25.47;54.60;99225.98;1420312;91;20408;-80
2021/08/05 09:47:18;;;;;;;;;;;;;;;25.39;55.12;99230.59;1420625;92;20304;-80
2021/08/05 09:49:50;;;;;;;;;;;;;;;25.26;56.14;99248.75;1420166;91;20795;-80
2021/08/05 09:52:20;;;;;;;;;;;;;;;25.14;56.03;99266.63;1427791;90;20370;-80
2021/08/05 09:54:51;;;;;;;;;;;;;;;24.98;56.67;99290.16;1434896;91;20265;-80
2021/08/05 09:57:25;;;;;;;;;;;;;;;24.81;60.80;99290.97;1431716;91;20303;-80
2021/08/05 09:59:59;;;;;;;;;;;;;;;24.56;63.49;99306.05;1439374;91;20720;-80
2021/08/05 10:02:26;;;;;;;;;;;;;;;24.28;63.05;99320.28;1430429;91;20316;-80
2021/08/05 10:04:54;;;;;;;;;;;;;;;23.97;67.00;99329.33;1441490;91;20617;-79
2021/08/05 10:07:20;;;;;;;;;;;;;;;23.74;66.85;99334.60;1427711;89;20351;-80
2021/08/05 10:09:49;;;;;;;;;;;;;;;23.38;69.12;99355.91;1439707;91;20888;-80
2021/08/05 10:12:18;;;;;;;;;;;;;;;23.13;68.31;99371.33;1413347;92;20326;-80
2021/08/05 10:14:45;;;;;;;;;;;;;;;22.98;69.69;99432.17;1421423;92;20847;-80
2021/08/05 10:17:11;;;;;;;;;;;;;;;22.80;70.49;99436.53;1420280;92;20394;-80
2021/08/05 10:19:42;;;;;;;;;;;;;;;22.65;69.81;99447.95;1424719;92;20289;-80
2021/08/05 10:22:10;;;;;;;;;;;;;;;22.55;67.97;99471.27;1420047;92;20471;-80
2021/08/05 10:24:38;;;;;;;;;;;;;;;22.48;69.10;99481.70;1424429;92;20461;-80
2021/08/05 10:27:06;;;;;;;;;;;;;;;22.41;66.82;99490.52;1420962;92;20261;-80
2021/08/05 10:29:34;;;;;;;;;;;;;;;22.37;67.26;99494.75;1423860;92;20275;-80
2021/08/05 10:32:01;;;;;;;;;;;;;;;22.33;66.94;99495.48;1419160;92;20281;-80
2021/08/05 10:34:27;;;;;;;;;;;;;;;22.26;64.86;99475.45;1423247;92;20334;-81
2021/08/05 10:36:53;;;;;;;;;;;;;;;22.24;66.59;99439.83;1418070;92;20811;-81
2021/08/05 10:39:19;;;;;;;;;;;;;;;22.19;67.71;99428.47;1410177;92;20364;-81
2021/08/05 10:41:45;;;;;;;;;;;;;;;22.03;72.64;99395.06;1420611;92;20326;-80
2021/08/05 10:44:12;;;;;;;;;;;;;;;21.76;75.45;99337.58;1427006;92;20289;-81
2021/08/05 10:46:38;;;;;;;;;;;;;;;21.66;74.63;99361.65;1421433;92;20515;-81
2021/08/05 10:49:04;;;;;;;;;;;;;;;21.58;74.64;99417.55;1416558;92;20758;-81
2021/08/05 10:51:40;;;;;;;;;;;;;;;21.56;74.04;99408.89;1427962;92;20391;-80
2021/08/05 10:54:05;;;;;;;;;;;;;;;21.57;74.04;99419.94;1419102;92;20687;-80
2021/08/05 10:56:31;;;;;;;;;;;;;;;21.65;74.24;99407.14;1422577;92;20267;-81
2021/08/05 10:59:04;;;;;;;;;;;;;;;21.72;75.30;99394.32;1430760;92;20261;-81
2021/08/05 11:01:54;;;;;;;;;;;;;;;21.77;77.91;99379.06;1431018;92;20547;-81
2021/08/05 11:04:38;;;;;;;;;;;;;;;21.85;78.18;99354.94;1422430;92;20781;-81
2021/08/05 11:07:24;;;;;;;;;;;;;;;21.97;79.14;99342.17;1418920;92;20877;-82
2021/08/05 11:09:52;;;;;;;;;;;;;;;22.12;79.75;99327.28;1424648;92;20304;-82
2021/08/05 11:12:38;;;;;;;;;;;;;;;22.22;78.58;99304.55;1421212;92;20261;-81
2021/08/05 11:15:07;;;;;;;;;;;;;;;22.33;78.67;99286.08;1376984;92;20790;-81
2021/08/05 11:17:35;;;;;;;;;;;;;;;22.49;78.47;99253.34;1381174;92;20320;-82
2021/08/05 11:20:16;;;;;;;;;;;;;;;22.65;77.92;99235.45;1399066;92;20331;-82
2021/08/05 11:22:42;;;;;;;;;;;;;;;22.89;77.20;99226.48;1422940;92;20895;-80
2021/08/05 11:25:08;;;;;;;;;;;;;;;23.21;76.36;99217.02;1422473;92;20752;-79
2021/08/05 11:27:34;;;;;;;;;;;;;;;23.48;75.60;99210.19;1421373;92;20393;-80
2021/08/05 11:30:00;;;;;;;;;;;;;;;23.67;75.10;99213.23;1427995;92;20296;-79
2021/08/05 11:32:29;;;;;;;;;;;;;;;23.79;73.20;99190.89;1427717;92;20836;-79
2021/08/05 11:35:08;;;;;;;;;;;;;;;24.01;73.60;99185.84;1423497;92;20327;-79
2021/08/05 11:37:32;;;;;;;;;;;;;;;24.14;72.86;99188.05;1430098;92;20282;-81
2021/08/05 11:40:00;;;;;;;;;;;;;;;24.44;72.75;99189.20;1421789;92;20813;-80
2021/08/05 11:42:30;;;;;;;;;;;;;;;24.67;72.43;99187.87;1426908;92;20268;-81
2021/08/05 11:45:03;;;;;;;;;;;;;;;24.76;70.90;99167.30;1418369;92;20774;-81
2021/08/05 11:47:38;;;;;;;;;;;;;;;24.87;71.05;99172.98;1422171;92;20331;-80
2021/08/05 11:50:16;;;;;;;;;;;;;;;24.90;69.31;99190.02;1426430;92;20290;-81
2021/08/05 11:52:44;;;;;;;;;;;;;;;24.86;68.28;99204.35;1424357;92;20252;-80
2021/08/05 11:55:20;;;;;;;;;;;;;;;24.78;68.33;99205.73;1411186;92;20333;-80
2021/08/05 11:57:52;;;;;;;;;;;;;;;24.65;68.98;99214.37;1430035;92;20373;-80
2021/08/05 12:00:39;;;;;;;;;;;;;;;24.45;68.72;99209.20;1414581;92;20231;-80
2021/08/05 12:03:07;;;;;;;;;;;;;;;24.26;69.12;99198.62;1422770;92;20751;-80
2021/08/05 12:05:49;;;;;;;;;;;;;;;24.17;68.60;99201.03;1422737;92;20307;-81
2021/08/05 12:08:21;;;;;;;;;;;;;;;24.06;68.83;99196.67;1407051;92;20253;-80
2021/08/05 12:10:47;;;;;;;;;;;;;;;24.02;69.96;99179.35;1409524;93;20357;-81
2021/08/05 12:13:16;;;;;;;;;;;;;;;24.01;70.17;99179.09;1413782;92;20420;-81
2021/08/05 12:15:46;;;;;;;;;;;;;;;24.01;69.95;99191.25;1405432;93;20253;-81
2021/08/05 12:18:20;;;;;;;;;;;;;;;24.00;70.68;99168.83;1406952;93;20737;-81
2021/08/05 12:20:49;;;;;;;;;;;;;;;24.05;71.24;99136.93;1422813;92;20294;-81
2021/08/05 12:23:24;;;;;;;;;;;;;;;24.15;70.71;99116.69;1394298;92;20330;-81
2021/08/05 12:26:06;;;;;;;;;;;;;;;24.30;69.72;99116.69;1381300;94;20772;-80
2021/08/05 12:28:22;;;;;;;;;;;;;;;24.36;68.01;99106.69;1422086;92;20310;-81
2021/08/05 12:30:52;;;;;;;;;;;;;;;24.28;70.63;99090.48;1416696;91;20450;-81
2021/08/05 12:33:26;;;;;;;;;;;;;;;24.37;70.11;99078.59;1408016;92;20297;-80
2021/08/05 12:36:15;;;;;;;;;;;;;;;24.46;70.90;99072.13;1413979;92;20494;-81
2021/08/05 12:38:50;;;;;;;;;;;;;;;24.51;68.70;99057.23;1406324;92;20721;-81
2021/08/05 12:41:37;;;;;;;;;;;;;;;24.57;68.32;99080.50;1403040;93;20394;-81
2021/08/05 12:44:11;;;;;;;;;;;;;;;24.60;68.91;99120.53;1420666;92;20904;-81
2021/08/05 12:46:38;;;;;;;;;;;;;;;24.62;67.89;99125.10;1413781;92;20870;-81
2021/08/05 12:49:04;;;;;;;;;;;;;;;24.60;67.84;99103.47;1422422;92;20323;-81
2021/08/05 12:51:32;;;;;;;;;;;;;;;24.61;68.00;99088.88;1421894;92;20401;-81
2021/08/05 12:54:18;;;;;;;;;;;;;;;24.62;68.35;99083.17;1411693;92;20230;-81